sensor_id;sensor_type;location;lat;lon;timestamp;P1;durP1;ratioP1;P2;durP2;ratioP2
57433;SDS011;43277;52.672;6.984;2022-10-04T00:06:44;17.30;;;8.13;;
57433;SDS011;43277;52.672;6.984;2022-10-04T00:09:23;14.35;;;7.32;;
57433;SDS011;43277;52.672;6.984;2022-10-04T00:11:54;15.68;;;7.32;;
57433;SDS011;43277;52.672;6.984;2022-10-04T00:14:27;21.10;;;9.27;;
57433;SDS011;43277;52.672;6.984;2022-10-04T00:17:07;15.18;;;8.10;;
57433;SDS011;43277;52.672;6.984;2022-10-04T00:24:33;18.25;;;9.27;;
57433;SDS011;43277;52.672;6.984;2022-10-04T00:27:15;20.42;;;9.35;;
57433;SDS011;43277;52.672;6.984;2022-10-04T00:33:13;20.40;;;10.77;;
57433;SDS011;43277;52.672;6.984;2022-10-04T00:40:34;18.92;;;10.43;;
57433;SDS011;43277;52.672;6.984;2022-10-04T00:43:30;21.67;;;10.13;;
57433;SDS011;43277;52.672;6.984;2022-10-04T00:46:10;16.73;;;8.95;;
57433;SDS011;43277;52.672;6.984;2022-10-04T00:53:46;18.75;;;9.95;;
57433;SDS011;43277;52.672;6.984;2022-10-04T00:56:19;16.83;;;10.20;;
57433;SDS011;43277;52.672;6.984;2022-10-04T01:01:25;17.60;;;9.48;;
57433;SDS011;43277;52.672;6.984;2022-10-04T01:03:52;14.05;;;7.95;;
57433;SDS011;43277;52.672;6.984;2022-10-04T01:06:21;18.75;;;9.50;;
57433;SDS011;43277;52.672;6.984;2022-10-04T01:08:50;19.92;;;10.05;;
57433;SDS011;43277;52.672;6.984;2022-10-04T01:11:24;20.73;;;11.07;;
57433;SDS011;43277;52.672;6.984;2022-10-04T01:16:26;18.85;;;11.27;;
57433;SDS011;43277;52.672;6.984;2022-10-04T01:21:30;22.08;;;12.35;;
57433;SDS011;43277;52.672;6.984;2022-10-04T01:29:09;15.10;;;9.90;;
57433;SDS011;43277;52.672;6.984;2022-10-04T01:31:39;16.08;;;9.68;;
57433;SDS011;43277;52.672;6.984;2022-10-04T01:34:17;15.60;;;9.50;;
57433;SDS011;43277;52.672;6.984;2022-10-04T01:36:44;23.98;;;12.20;;
57433;SDS011;43277;52.672;6.984;2022-10-04T01:39:13;20.42;;;11.60;;
57433;SDS011;43277;52.672;6.984;2022-10-04T01:47:25;18.17;;;11.77;;
57433;SDS011;43277;52.672;6.984;2022-10-04T01:50:00;17.40;;;11.57;;
57433;SDS011;43277;52.672;6.984;2022-10-04T01:55:44;20.33;;;11.60;;
57433;SDS011;43277;52.672;6.984;2022-10-04T01:58:19;21.67;;;11.20;;
57433;SDS011;43277;52.672;6.984;2022-10-04T02:01:33;15.10;;;9.95;;
57433;SDS011;43277;52.672;6.984;2022-10-04T02:03:51;19.98;;;13.05;;
57433;SDS011;43277;52.672;6.984;2022-10-04T02:06:27;18.63;;;12.18;;
57433;SDS011;43277;52.672;6.984;2022-10-04T02:08:59;22.70;;;13.85;;
57433;SDS011;43277;52.672;6.984;2022-10-04T02:11:33;17.45;;;11.18;;
57433;SDS011;43277;52.672;6.984;2022-10-04T02:14:00;25.15;;;14.50;;
57433;SDS011;43277;52.672;6.984;2022-10-04T02:16:27;21.58;;;11.98;;
57433;SDS011;43277;52.672;6.984;2022-10-04T02:18:53;20.40;;;12.43;;
57433;SDS011;43277;52.672;6.984;2022-10-04T02:21:19;17.42;;;10.95;;
57433;SDS011;43277;52.672;6.984;2022-10-04T02:23:47;19.83;;;11.25;;
57433;SDS011;43277;52.672;6.984;2022-10-04T02:26:13;16.05;;;10.43;;
57433;SDS011;43277;52.672;6.984;2022-10-04T02:28:39;17.75;;;11.73;;
57433;SDS011;43277;52.672;6.984;2022-10-04T02:31:05;21.27;;;13.30;;
57433;SDS011;43277;52.672;6.984;2022-10-04T02:33:51;25.75;;;15.27;;
57433;SDS011;43277;52.672;6.984;2022-10-04T02:36:25;23.60;;;13.82;;
57433;SDS011;43277;52.672;6.984;2022-10-04T02:38:54;20.42;;;13.68;;
57433;SDS011;43277;52.672;6.984;2022-10-04T02:41:40;21.73;;;13.27;;
57433;SDS011;43277;52.672;6.984;2022-10-04T02:46:47;22.35;;;13.93;;
57433;SDS011;43277;52.672;6.984;2022-10-04T02:49:28;22.25;;;14.15;;
57433;SDS011;43277;52.672;6.984;2022-10-04T02:54:44;21.30;;;14.80;;
57433;SDS011;43277;52.672;6.984;2022-10-04T02:57:17;22.73;;;13.88;;
57433;SDS011;43277;52.672;6.984;2022-10-04T02:59:44;23.50;;;14.65;;
57433;SDS011;43277;52.672;6.984;2022-10-04T03:02:24;22.02;;;13.48;;
57433;SDS011;43277;52.672;6.984;2022-10-04T03:04:52;22.60;;;14.07;;
57433;SDS011;43277;52.672;6.984;2022-10-04T03:07:20;21.65;;;14.65;;
57433;SDS011;43277;52.672;6.984;2022-10-04T03:09:47;27.10;;;15.02;;
57433;SDS011;43277;52.672;6.984;2022-10-04T03:12:13;24.85;;;14.60;;
57433;SDS011;43277;52.672;6.984;2022-10-04T03:14:39;22.50;;;14.27;;
57433;SDS011;43277;52.672;6.984;2022-10-04T03:17:06;26.23;;;15.25;;
57433;SDS011;43277;52.672;6.984;2022-10-04T03:19:32;24.33;;;14.77;;
57433;SDS011;43277;52.672;6.984;2022-10-04T03:22:17;22.85;;;13.40;;
57433;SDS011;43277;52.672;6.984;2022-10-04T03:24:44;26.50;;;15.82;;
57433;SDS011;43277;52.672;6.984;2022-10-04T03:27:13;22.83;;;15.98;;
57433;SDS011;43277;52.672;6.984;2022-10-04T03:30:00;22.48;;;15.88;;
57433;SDS011;43277;52.672;6.984;2022-10-04T03:32:26;25.55;;;16.10;;
57433;SDS011;43277;52.672;6.984;2022-10-04T03:34:55;27.10;;;16.35;;
57433;SDS011;43277;52.672;6.984;2022-10-04T03:37:23;27.92;;;19.38;;
57433;SDS011;43277;52.672;6.984;2022-10-04T03:39:51;28.85;;;19.38;;
57433;SDS011;43277;52.672;6.984;2022-10-04T03:42:20;26.70;;;16.90;;
57433;SDS011;43277;52.672;6.984;2022-10-04T03:44:54;26.30;;;18.35;;
57433;SDS011;43277;52.672;6.984;2022-10-04T03:47:29;29.40;;;18.65;;
57433;SDS011;43277;52.672;6.984;2022-10-04T03:49:57;26.45;;;20.25;;
57433;SDS011;43277;52.672;6.984;2022-10-04T03:52:29;27.08;;;18.20;;
57433;SDS011;43277;52.672;6.984;2022-10-04T03:54:59;30.33;;;20.63;;
57433;SDS011;43277;52.672;6.984;2022-10-04T03:57:28;25.83;;;16.48;;
57433;SDS011;43277;52.672;6.984;2022-10-04T03:59:55;27.73;;;19.45;;
57433;SDS011;43277;52.672;6.984;2022-10-04T04:05:30;32.17;;;21.30;;
57433;SDS011;43277;52.672;6.984;2022-10-04T04:10:36;34.15;;;21.50;;
57433;SDS011;43277;52.672;6.984;2022-10-04T04:15:32;29.95;;;20.63;;
57433;SDS011;43277;52.672;6.984;2022-10-04T04:18:04;34.80;;;23.67;;
57433;SDS011;43277;52.672;6.984;2022-10-04T04:20:37;27.63;;;20.25;;
57433;SDS011;43277;52.672;6.984;2022-10-04T04:25:36;33.28;;;21.40;;
57433;SDS011;43277;52.672;6.984;2022-10-04T04:28:06;25.98;;;18.65;;
57433;SDS011;43277;52.672;6.984;2022-10-04T04:31:00;27.55;;;21.15;;
57433;SDS011;43277;52.672;6.984;2022-10-04T04:33:31;34.47;;;24.88;;
57433;SDS011;43277;52.672;6.984;2022-10-04T04:36:05;34.00;;;23.45;;
57433;SDS011;43277;52.672;6.984;2022-10-04T04:38:35;32.42;;;20.33;;
57433;SDS011;43277;52.672;6.984;2022-10-04T04:41:20;37.15;;;24.10;;
57433;SDS011;43277;52.672;6.984;2022-10-04T04:43:48;34.25;;;23.88;;
57433;SDS011;43277;52.672;6.984;2022-10-04T04:46:14;30.90;;;21.13;;
57433;SDS011;43277;52.672;6.984;2022-10-04T04:48:44;29.25;;;21.92;;
57433;SDS011;43277;52.672;6.984;2022-10-04T04:51:19;31.00;;;22.15;;
57433;SDS011;43277;52.672;6.984;2022-10-04T04:53:47;26.33;;;21.08;;
57433;SDS011;43277;52.672;6.984;2022-10-04T04:56:16;30.48;;;20.65;;
57433;SDS011;43277;52.672;6.984;2022-10-04T04:58:44;30.92;;;21.48;;
57433;SDS011;43277;52.672;6.984;2022-10-04T05:01:14;30.27;;;21.60;;
57433;SDS011;43277;52.672;6.984;2022-10-04T05:06:37;32.40;;;22.02;;
57433;SDS011;43277;52.672;6.984;2022-10-04T05:09:22;32.20;;;20.73;;
57433;SDS011;43277;52.672;6.984;2022-10-04T05:11:49;30.98;;;23.55;;
57433;SDS011;43277;52.672;6.984;2022-10-04T05:14:17;27.52;;;21.60;;
57433;SDS011;43277;52.672;6.984;2022-10-04T05:16:53;30.10;;;23.83;;
57433;SDS011;43277;52.672;6.984;2022-10-04T05:19:26;26.27;;;21.52;;
57433;SDS011;43277;52.672;6.984;2022-10-04T05:21:55;24.90;;;20.00;;
57433;SDS011;43277;52.672;6.984;2022-10-04T05:24:28;28.58;;;22.88;;
57433;SDS011;43277;52.672;6.984;2022-10-04T05:26:56;29.02;;;23.35;;
57433;SDS011;43277;52.672;6.984;2022-10-04T05:29:25;34.00;;;25.73;;
57433;SDS011;43277;52.672;6.984;2022-10-04T05:32:20;27.27;;;20.95;;
57433;SDS011;43277;52.672;6.984;2022-10-04T05:34:58;38.10;;;28.75;;
57433;SDS011;43277;52.672;6.984;2022-10-04T05:40:03;31.75;;;22.77;;
57433;SDS011;43277;52.672;6.984;2022-10-04T05:42:41;31.02;;;23.50;;
57433;SDS011;43277;52.672;6.984;2022-10-04T05:45:30;29.80;;;24.35;;
57433;SDS011;43277;52.672;6.984;2022-10-04T05:47:56;31.50;;;21.70;;
57433;SDS011;43277;52.672;6.984;2022-10-04T05:53:10;35.65;;;24.60;;
57433;SDS011;43277;52.672;6.984;2022-10-04T05:58:40;28.50;;;24.10;;
57433;SDS011;43277;52.672;6.984;2022-10-04T06:12:27;31.10;;;24.30;;
57433;SDS011;43277;52.672;6.984;2022-10-04T06:23:24;27.65;;;18.70;;
57433;SDS011;43277;52.672;6.984;2022-10-04T06:25:57;25.55;;;18.25;;
57433;SDS011;43277;52.672;6.984;2022-10-04T06:28:46;29.33;;;21.83;;
57433;SDS011;43277;52.672;6.984;2022-10-04T06:44:57;27.02;;;21.88;;
57433;SDS011;43277;52.672;6.984;2022-10-04T06:50:54;29.05;;;20.20;;
57433;SDS011;43277;52.672;6.984;2022-10-04T07:01:59;28.65;;;18.95;;
57433;SDS011;43277;52.672;6.984;2022-10-04T07:04:37;19.95;;;16.15;;
57433;SDS011;43277;52.672;6.984;2022-10-04T07:12:42;29.15;;;19.58;;
57433;SDS011;43277;52.672;6.984;2022-10-04T07:15:30;24.85;;;16.70;;
57433;SDS011;43277;52.672;6.984;2022-10-04T07:18:06;23.40;;;17.23;;
57433;SDS011;43277;52.672;6.984;2022-10-04T07:20:37;27.27;;;16.85;;
57433;SDS011;43277;52.672;6.984;2022-10-04T07:23:05;25.25;;;16.20;;
57433;SDS011;43277;52.672;6.984;2022-10-04T07:25:42;20.00;;;13.95;;
57433;SDS011;43277;52.672;6.984;2022-10-04T07:28:15;21.00;;;15.50;;
57433;SDS011;43277;52.672;6.984;2022-10-04T07:31:10;20.95;;;14.18;;
57433;SDS011;43277;52.672;6.984;2022-10-04T07:33:43;26.02;;;15.23;;
57433;SDS011;43277;52.672;6.984;2022-10-04T07:36:28;22.55;;;12.70;;
57433;SDS011;43277;52.672;6.984;2022-10-04T07:39:14;21.75;;;13.70;;
57433;SDS011;43277;52.672;6.984;2022-10-04T07:41:50;19.83;;;12.40;;
57433;SDS011;43277;52.672;6.984;2022-10-04T07:49:43;21.63;;;11.65;;
57433;SDS011;43277;52.672;6.984;2022-10-04T07:55:12;20.83;;;12.10;;
57433;SDS011;43277;52.672;6.984;2022-10-04T08:07:06;20.65;;;10.48;;
57433;SDS011;43277;52.672;6.984;2022-10-04T08:12:17;20.15;;;9.27;;
57433;SDS011;43277;52.672;6.984;2022-10-04T08:17:56;16.30;;;9.07;;
57433;SDS011;43277;52.672;6.984;2022-10-04T08:20:47;17.35;;;8.60;;
57433;SDS011;43277;52.672;6.984;2022-10-04T08:23:28;17.35;;;9.38;;
57433;SDS011;43277;52.672;6.984;2022-10-04T08:29:01;18.52;;;8.55;;
57433;SDS011;43277;52.672;6.984;2022-10-04T08:43:55;16.58;;;8.20;;
57433;SDS011;43277;52.672;6.984;2022-10-04T08:58:12;17.65;;;8.43;;
57433;SDS011;43277;52.672;6.984;2022-10-04T09:00:49;17.00;;;7.63;;
57433;SDS011;43277;52.672;6.984;2022-10-04T09:03:25;12.57;;;7.72;;
57433;SDS011;43277;52.672;6.984;2022-10-04T09:05:59;16.38;;;8.27;;
57433;SDS011;43277;52.672;6.984;2022-10-04T09:16:48;14.90;;;7.47;;
57433;SDS011;43277;52.672;6.984;2022-10-04T09:19:27;15.10;;;7.47;;
57433;SDS011;43277;52.672;6.984;2022-10-04T09:22:29;13.10;;;7.43;;
57433;SDS011;43277;52.672;6.984;2022-10-04T09:41:38;15.18;;;7.20;;
57433;SDS011;43277;52.672;6.984;2022-10-04T09:50:05;21.23;;;7.10;;
57433;SDS011;43277;52.672;6.984;2022-10-04T10:01:31;11.93;;;5.78;;
57433;SDS011;43277;52.672;6.984;2022-10-04T10:26:51;10.90;;;4.35;;
57433;SDS011;43277;52.672;6.984;2022-10-04T10:39:47;13.38;;;4.88;;
57433;SDS011;43277;52.672;6.984;2022-10-04T10:45:25;12.70;;;4.78;;
57433;SDS011;43277;52.672;6.984;2022-10-04T10:51:09;11.63;;;4.60;;
57433;SDS011;43277;52.672;6.984;2022-10-04T11:05:28;11.38;;;4.10;;
57433;SDS011;43277;52.672;6.984;2022-10-04T11:20:01;9.38;;;4.35;;
57433;SDS011;43277;52.672;6.984;2022-10-04T11:23:12;12.10;;;4.53;;
57433;SDS011;43277;52.672;6.984;2022-10-04T11:26:08;12.18;;;3.97;;
57433;SDS011;43277;52.672;6.984;2022-10-04T11:31:53;12.85;;;4.35;;
57433;SDS011;43277;52.672;6.984;2022-10-04T11:42:42;10.48;;;4.10;;
57433;SDS011;43277;52.672;6.984;2022-10-04T11:54:56;13.30;;;4.28;;
57433;SDS011;43277;52.672;6.984;2022-10-04T11:59:48;9.50;;;3.55;;
57433;SDS011;43277;52.672;6.984;2022-10-04T12:02:33;11.98;;;3.92;;
57433;SDS011;43277;52.672;6.984;2022-10-04T12:05:22;13.20;;;3.78;;
57433;SDS011;43277;52.672;6.984;2022-10-04T12:10:48;11.13;;;3.75;;
57433;SDS011;43277;52.672;6.984;2022-10-04T12:19:03;9.85;;;3.78;;
57433;SDS011;43277;52.672;6.984;2022-10-04T12:24:46;10.55;;;3.60;;
57433;SDS011;43277;52.672;6.984;2022-10-04T12:33:16;10.38;;;3.50;;
57433;SDS011;43277;52.672;6.984;2022-10-04T12:38:39;8.70;;;3.08;;
57433;SDS011;43277;52.672;6.984;2022-10-04T12:41:40;9.88;;;3.45;;
57433;SDS011;43277;52.672;6.984;2022-10-04T12:47:59;10.00;;;3.20;;
57433;SDS011;43277;52.672;6.984;2022-10-04T13:02:02;9.65;;;3.92;;
57433;SDS011;43277;52.672;6.984;2022-10-04T13:04:47;12.15;;;4.20;;
57433;SDS011;43277;52.672;6.984;2022-10-04T13:10:03;10.68;;;4.20;;
57433;SDS011;43277;52.672;6.984;2022-10-04T13:18:30;11.50;;;4.72;;
57433;SDS011;43277;52.672;6.984;2022-10-04T13:24:18;10.80;;;4.97;;
57433;SDS011;43277;52.672;6.984;2022-10-04T13:27:23;13.85;;;5.13;;
57433;SDS011;43277;52.672;6.984;2022-10-04T13:35:50;11.05;;;4.75;;
57433;SDS011;43277;52.672;6.984;2022-10-04T13:38:36;9.88;;;4.07;;
57433;SDS011;43277;52.672;6.984;2022-10-04T13:55:41;12.77;;;5.75;;
57433;SDS011;43277;52.672;6.984;2022-10-04T13:58:58;10.73;;;5.15;;
57433;SDS011;43277;52.672;6.984;2022-10-04T14:07:02;10.30;;;5.10;;
57433;SDS011;43277;52.672;6.984;2022-10-04T14:29:41;10.48;;;4.93;;
57433;SDS011;43277;52.672;6.984;2022-10-04T14:46:59;11.65;;;5.65;;
57433;SDS011;43277;52.672;6.984;2022-10-04T15:06:55;10.20;;;5.40;;
57433;SDS011;43277;52.672;6.984;2022-10-04T15:20:15;10.15;;;4.60;;
57433;SDS011;43277;52.672;6.984;2022-10-04T15:22:56;10.82;;;5.13;;
57433;SDS011;43277;52.672;6.984;2022-10-04T15:25:53;12.13;;;4.80;;
57433;SDS011;43277;52.672;6.984;2022-10-04T15:34:01;11.25;;;4.78;;
57433;SDS011;43277;52.672;6.984;2022-10-04T15:39:34;12.98;;;4.88;;
57433;SDS011;43277;52.672;6.984;2022-10-04T15:42:27;11.70;;;5.82;;
57433;SDS011;43277;52.672;6.984;2022-10-04T15:47:28;13.23;;;5.15;;
57433;SDS011;43277;52.672;6.984;2022-10-04T15:50:23;9.88;;;5.00;;
57433;SDS011;43277;52.672;6.984;2022-10-04T15:55:20;10.48;;;4.93;;
57433;SDS011;43277;52.672;6.984;2022-10-04T16:09:02;11.25;;;4.85;;
57433;SDS011;43277;52.672;6.984;2022-10-04T16:22:40;12.32;;;5.32;;
57433;SDS011;43277;52.672;6.984;2022-10-04T16:25:56;13.93;;;5.90;;
57433;SDS011;43277;52.672;6.984;2022-10-04T16:36:49;14.85;;;6.13;;
57433;SDS011;43277;52.672;6.984;2022-10-04T16:39:33;10.65;;;5.30;;
57433;SDS011;43277;52.672;6.984;2022-10-04T16:47:34;10.18;;;5.68;;
57433;SDS011;43277;52.672;6.984;2022-10-04T16:50:04;11.75;;;5.32;;
57433;SDS011;43277;52.672;6.984;2022-10-04T16:55:02;12.70;;;5.57;;
57433;SDS011;43277;52.672;6.984;2022-10-04T16:57:35;10.80;;;5.95;;
57433;SDS011;43277;52.672;6.984;2022-10-04T17:03:01;11.70;;;5.65;;
57433;SDS011;43277;52.672;6.984;2022-10-04T17:05:44;13.13;;;5.60;;
57433;SDS011;43277;52.672;6.984;2022-10-04T17:22:58;13.02;;;6.47;;
57433;SDS011;43277;52.672;6.984;2022-10-04T17:31:48;11.57;;;6.43;;
57433;SDS011;43277;52.672;6.984;2022-10-04T17:36:55;12.77;;;6.78;;
57433;SDS011;43277;52.672;6.984;2022-10-04T17:42:19;11.93;;;6.55;;
57433;SDS011;43277;52.672;6.984;2022-10-04T17:51:10;15.32;;;6.38;;
57433;SDS011;43277;52.672;6.984;2022-10-04T17:53:39;13.27;;;7.40;;
57433;SDS011;43277;52.672;6.984;2022-10-04T17:56:30;12.15;;;6.72;;
57433;SDS011;43277;52.672;6.984;2022-10-04T17:59:04;15.57;;;7.38;;
57433;SDS011;43277;52.672;6.984;2022-10-04T18:01:46;13.77;;;6.88;;
57433;SDS011;43277;52.672;6.984;2022-10-04T18:09:23;12.48;;;6.57;;
57433;SDS011;43277;52.672;6.984;2022-10-04T18:12:03;11.73;;;7.28;;
57433;SDS011;43277;52.672;6.984;2022-10-04T18:17:50;11.85;;;6.50;;
57433;SDS011;43277;52.672;6.984;2022-10-04T18:20:38;13.98;;;6.97;;
57433;SDS011;43277;52.672;6.984;2022-10-04T18:23:23;17.17;;;6.72;;
57433;SDS011;43277;52.672;6.984;2022-10-04T18:25:52;13.00;;;7.15;;
57433;SDS011;43277;52.672;6.984;2022-10-04T18:28:23;13.30;;;7.25;;
57433;SDS011;43277;52.672;6.984;2022-10-04T18:30:53;15.25;;;6.80;;
57433;SDS011;43277;52.672;6.984;2022-10-04T18:33:27;12.20;;;6.40;;
57433;SDS011;43277;52.672;6.984;2022-10-04T18:36:07;12.25;;;6.70;;
57433;SDS011;43277;52.672;6.984;2022-10-04T18:38:41;10.80;;;5.95;;
57433;SDS011;43277;52.672;6.984;2022-10-04T18:41:27;13.55;;;5.88;;
57433;SDS011;43277;52.672;6.984;2022-10-04T18:44:15;13.40;;;6.35;;
57433;SDS011;43277;52.672;6.984;2022-10-04T18:46:44;14.52;;;6.30;;
57433;SDS011;43277;52.672;6.984;2022-10-04T18:49:17;12.75;;;5.90;;
57433;SDS011;43277;52.672;6.984;2022-10-04T18:57:53;15.80;;;6.32;;
57433;SDS011;43277;52.672;6.984;2022-10-04T19:00:52;15.48;;;6.38;;
57433;SDS011;43277;52.672;6.984;2022-10-04T19:06:29;11.93;;;5.72;;
57433;SDS011;43277;52.672;6.984;2022-10-04T19:11:37;11.07;;;6.07;;
57433;SDS011;43277;52.672;6.984;2022-10-04T19:16:56;10.60;;;5.88;;
57433;SDS011;43277;52.672;6.984;2022-10-04T19:19:31;15.35;;;6.15;;
57433;SDS011;43277;52.672;6.984;2022-10-04T19:30:21;14.35;;;5.97;;
57433;SDS011;43277;52.672;6.984;2022-10-04T19:40:57;11.43;;;6.15;;
57433;SDS011;43277;52.672;6.984;2022-10-04T19:43:33;14.50;;;6.10;;
57433;SDS011;43277;52.672;6.984;2022-10-04T19:46:08;12.02;;;6.18;;
57433;SDS011;43277;52.672;6.984;2022-10-04T19:48:47;12.75;;;6.15;;
57433;SDS011;43277;52.672;6.984;2022-10-04T19:51:38;13.82;;;6.70;;
57433;SDS011;43277;52.672;6.984;2022-10-04T19:54:16;10.88;;;5.95;;
57433;SDS011;43277;52.672;6.984;2022-10-04T19:56:48;11.32;;;6.05;;
57433;SDS011;43277;52.672;6.984;2022-10-04T19:59:16;12.85;;;6.03;;
57433;SDS011;43277;52.672;6.984;2022-10-04T20:01:54;12.55;;;6.40;;
57433;SDS011;43277;52.672;6.984;2022-10-04T20:04:19;10.90;;;6.40;;
57433;SDS011;43277;52.672;6.984;2022-10-04T20:07:21;15.25;;;6.20;;
57433;SDS011;43277;52.672;6.984;2022-10-04T20:09:51;11.63;;;6.22;;
57433;SDS011;43277;52.672;6.984;2022-10-04T20:12:33;9.68;;;5.75;;
57433;SDS011;43277;52.672;6.984;2022-10-04T20:17:47;12.40;;;5.82;;
57433;SDS011;43277;52.672;6.984;2022-10-04T20:21:02;10.80;;;6.07;;
57433;SDS011;43277;52.672;6.984;2022-10-04T20:23:03;10.88;;;5.63;;
57433;SDS011;43277;52.672;6.984;2022-10-04T20:30:57;11.05;;;5.47;;
57433;SDS011;43277;52.672;6.984;2022-10-04T20:38:51;11.32;;;5.70;;
57433;SDS011;43277;52.672;6.984;2022-10-04T20:46:35;14.00;;;5.65;;
57433;SDS011;43277;52.672;6.984;2022-10-04T20:49:02;10.20;;;5.38;;
57433;SDS011;43277;52.672;6.984;2022-10-04T20:51:30;12.20;;;5.78;;
57433;SDS011;43277;52.672;6.984;2022-10-04T20:53:57;12.32;;;5.60;;
57433;SDS011;43277;52.672;6.984;2022-10-04T20:56:30;9.75;;;5.18;;
57433;SDS011;43277;52.672;6.984;2022-10-04T20:58:57;14.57;;;5.55;;
57433;SDS011;43277;52.672;6.984;2022-10-04T21:01:25;10.82;;;5.60;;
57433;SDS011;43277;52.672;6.984;2022-10-04T21:06:50;14.13;;;5.50;;
57433;SDS011;43277;52.672;6.984;2022-10-04T21:09:17;15.30;;;5.65;;
57433;SDS011;43277;52.672;6.984;2022-10-04T21:11:44;14.82;;;6.28;;
57433;SDS011;43277;52.672;6.984;2022-10-04T21:14:25;11.60;;;5.75;;
57433;SDS011;43277;52.672;6.984;2022-10-04T21:16:58;11.95;;;5.97;;
57433;SDS011;43277;52.672;6.984;2022-10-04T21:21:57;12.55;;;6.18;;
57433;SDS011;43277;52.672;6.984;2022-10-04T21:24:25;10.50;;;6.13;;
57433;SDS011;43277;52.672;6.984;2022-10-04T21:27:02;9.40;;;5.68;;
57433;SDS011;43277;52.672;6.984;2022-10-04T21:29:30;12.18;;;6.20;;
57433;SDS011;43277;52.672;6.984;2022-10-04T21:31:55;12.43;;;6.07;;
57433;SDS011;43277;52.672;6.984;2022-10-04T21:34:25;14.10;;;6.28;;
57433;SDS011;43277;52.672;6.984;2022-10-04T21:36:51;11.32;;;6.55;;
57433;SDS011;43277;52.672;6.984;2022-10-04T21:39:17;12.95;;;6.50;;
57433;SDS011;43277;52.672;6.984;2022-10-04T21:41:43;10.80;;;6.40;;
57433;SDS011;43277;52.672;6.984;2022-10-04T21:44:08;11.90;;;6.60;;
57433;SDS011;43277;52.672;6.984;2022-10-04T21:46:34;11.38;;;6.18;;
57433;SDS011;43277;52.672;6.984;2022-10-04T21:49:00;12.00;;;6.85;;
57433;SDS011;43277;52.672;6.984;2022-10-04T21:51:29;11.38;;;6.45;;
57433;SDS011;43277;52.672;6.984;2022-10-04T21:54:04;9.90;;;6.82;;
57433;SDS011;43277;52.672;6.984;2022-10-04T21:56:30;10.88;;;6.78;;
57433;SDS011;43277;52.672;6.984;2022-10-04T21:58:56;14.40;;;6.70;;
57433;SDS011;43277;52.672;6.984;2022-10-04T22:01:22;14.40;;;6.70;;
57433;SDS011;43277;52.672;6.984;2022-10-04T22:03:48;15.38;;;7.07;;
57433;SDS011;43277;52.672;6.984;2022-10-04T22:06:14;14.63;;;7.07;;
57433;SDS011;43277;52.672;6.984;2022-10-04T22:08:40;13.88;;;7.00;;
57433;SDS011;43277;52.672;6.984;2022-10-04T22:11:07;12.50;;;6.97;;
57433;SDS011;43277;52.672;6.984;2022-10-04T22:13:33;12.73;;;7.03;;
57433;SDS011;43277;52.672;6.984;2022-10-04T22:15:59;13.38;;;7.00;;
57433;SDS011;43277;52.672;6.984;2022-10-04T22:18:26;13.00;;;6.50;;
57433;SDS011;43277;52.672;6.984;2022-10-04T22:20:52;10.27;;;6.47;;
57433;SDS011;43277;52.672;6.984;2022-10-04T22:23:19;13.02;;;6.82;;
57433;SDS011;43277;52.672;6.984;2022-10-04T22:25:47;9.77;;;6.30;;
57433;SDS011;43277;52.672;6.984;2022-10-04T22:28:16;11.48;;;6.53;;
57433;SDS011;43277;52.672;6.984;2022-10-04T22:30:45;10.43;;;6.03;;
57433;SDS011;43277;52.672;6.984;2022-10-04T22:33:32;12.27;;;6.72;;
57433;SDS011;43277;52.672;6.984;2022-10-04T22:41:18;13.05;;;6.22;;
57433;SDS011;43277;52.672;6.984;2022-10-04T22:43:45;10.30;;;6.70;;
57433;SDS011;43277;52.672;6.984;2022-10-04T22:46:13;12.18;;;6.47;;
57433;SDS011;43277;52.672;6.984;2022-10-04T22:48:45;10.07;;;6.35;;
57433;SDS011;43277;52.672;6.984;2022-10-04T22:51:12;12.07;;;7.10;;
57433;SDS011;43277;52.672;6.984;2022-10-04T22:53:40;12.48;;;6.18;;
57433;SDS011;43277;52.672;6.984;2022-10-04T22:56:13;11.95;;;6.22;;
57433;SDS011;43277;52.672;6.984;2022-10-04T22:58:39;11.85;;;5.78;;
57433;SDS011;43277;52.672;6.984;2022-10-04T23:01:13;13.60;;;6.65;;
57433;SDS011;43277;52.672;6.984;2022-10-04T23:03:43;12.23;;;6.57;;
57433;SDS011;43277;52.672;6.984;2022-10-04T23:06:11;11.17;;;6.63;;
57433;SDS011;43277;52.672;6.984;2022-10-04T23:08:42;13.27;;;6.78;;
57433;SDS011;43277;52.672;6.984;2022-10-04T23:11:08;13.77;;;6.68;;
57433;SDS011;43277;52.672;6.984;2022-10-04T23:13:34;10.65;;;5.97;;
57433;SDS011;43277;52.672;6.984;2022-10-04T23:16:10;13.70;;;7.20;;
57433;SDS011;43277;52.672;6.984;2022-10-04T23:18:38;11.35;;;7.13;;
57433;SDS011;43277;52.672;6.984;2022-10-04T23:21:09;12.45;;;6.57;;
57433;SDS011;43277;52.672;6.984;2022-10-04T23:23:41;10.05;;;6.88;;
57433;SDS011;43277;52.672;6.984;2022-10-04T23:26:18;10.63;;;6.25;;
57433;SDS011;43277;52.672;6.984;2022-10-04T23:28:49;10.68;;;6.82;;
57433;SDS011;43277;52.672;6.984;2022-10-04T23:31:18;13.00;;;7.00;;
57433;SDS011;43277;52.672;6.984;2022-10-04T23:33:49;12.90;;;6.57;;
57433;SDS011;43277;52.672;6.984;2022-10-04T23:36:15;9.48;;;6.30;;
57433;SDS011;43277;52.672;6.984;2022-10-04T23:38:43;11.07;;;6.70;;
57433;SDS011;43277;52.672;6.984;2022-10-04T23:41:14;12.68;;;7.20;;
57433;SDS011;43277;52.672;6.984;2022-10-04T23:43:41;12.65;;;7.10;;
57433;SDS011;43277;52.672;6.984;2022-10-04T23:46:10;12.52;;;7.28;;
57433;SDS011;43277;52.672;6.984;2022-10-04T23:48:38;9.10;;;6.78;;
57433;SDS011;43277;52.672;6.984;2022-10-04T23:51:05;10.15;;;6.78;;
57433;SDS011;43277;52.672;6.984;2022-10-04T23:53:33;12.90;;;6.95;;
57433;SDS011;43277;52.672;6.984;2022-10-04T23:56:02;10.38;;;6.38;;
57433;SDS011;43277;52.672;6.984;2022-10-04T23:58:33;12.13;;;6.40;;
